WSAP/QPG METAR and TAF weather

Enter ICAO airport designator
Station Type Date Time Source
WSAP METAR 2018/12/17 03:00 UTC NOAA

WSAP 170300Z 22006KT 9999 FEW018 BKN150 28/24 Q1013


Station Type Date Time Source
WSAP Decoded METAR 2018/12/17 03:00 UTC NOAA

Singapore / Paya Lebar, Singapore (WSAP) 01-22N 103-55E 32M
Dec 16, 2018 - 10:00 PM EST / 2018.12.17 0300 UTC
Wind: from the SW (220 degrees) at 7 MPH (6 KT):0
Visibility: greater than 7 mile(s):0
Sky conditions: mostly cloudy
Temperature: 82 F (28 C)
Dew Point: 75 F (24 C)
Relative Humidity: 78%
Pressure (altimeter): 29.91 in. Hg (1013 hPa)
ob: WSAP 170300Z 22006KT 9999 FEW018 BKN150 28/24 Q1013
cycle: 3

Station Type Date Time Source
WSAP TAF 2018/12/17 02:33 UTC NOAA

TAF
AMD TAF
AMD WSAP 170230Z 1702/1806 VRB05KT 9999 FEW015CB SCT020


Example: see airport list